Jeanerette, Louisiana
Current Conditions -  °F | °C
As of 12:53 PM on Friday 21 Nov 2014 (Local Time) from KARA Reporting Station
Clear Clear  
Wind Chill: 23°   Ceiling: Unl
Heat Index: 23°   Visibility: 10mi
Dew Point:   Wind: 14mph
Humidity: 39%   Direction: 120°ESE
Pressure: 30.21"   Gusts: NA
Location:  29.91°N, 91.66°W
Report Text: KARA 211853Z 12012KT 10SM CLR 23/08 A3021 RMK AO2 SLP229 T02280083
Loading
Personal Weather Stations






























Interactive Weather Map New forecast layout! Learn more

10-Day Weather Forecast

Advertisements
Track Severe Weather on mobile